createdAt,value
2017-08-02T00:00:57.408Z,0
2017-08-02T00:01:58.851Z,0
2017-08-02T00:03:00.276Z,0
2017-08-02T00:04:01.699Z,0
2017-08-02T00:05:03.125Z,0
2017-08-02T00:06:04.555Z,0
2017-08-02T00:07:05.984Z,0
2017-08-02T00:08:07.410Z,0
2017-08-02T00:09:08.834Z,0
2017-08-02T00:10:10.258Z,0
2017-08-02T00:11:11.684Z,0
2017-08-02T00:12:13.106Z,0
2017-08-02T00:13:14.540Z,0
2017-08-02T00:14:15.971Z,0
2017-08-02T00:15:17.395Z,0
2017-08-02T00:16:18.831Z,0
2017-08-02T00:17:20.254Z,0
2017-08-02T00:18:21.693Z,0
2017-08-02T00:19:23.123Z,0
2017-08-02T00:20:24.538Z,0
2017-08-02T00:21:25.966Z,0
2017-08-02T00:22:27.391Z,0
2017-08-02T00:23:28.818Z,0
2017-08-02T00:24:30.240Z,0
2017-08-02T00:25:31.660Z,0
2017-08-02T00:26:33.093Z,0
2017-08-02T00:27:34.524Z,0
2017-08-02T00:28:35.942Z,0
2017-08-02T00:29:37.369Z,0
2017-08-02T00:30:38.801Z,0
2017-08-02T00:31:40.228Z,0
2017-08-02T00:32:41.655Z,0
2017-08-02T00:33:43.081Z,0
2017-08-02T00:34:44.505Z,0
2017-08-02T00:35:45.931Z,0
2017-08-02T00:36:47.354Z,0
2017-08-02T00:37:48.779Z,0
2017-08-02T00:38:50.215Z,0
2017-08-02T00:39:51.638Z,0
2017-08-02T00:40:53.057Z,0
2017-08-02T00:41:54.487Z,0
2017-08-02T00:42:55.924Z,0
2017-08-02T00:43:57.349Z,0
2017-08-02T00:44:58.771Z,0
2017-08-02T00:46:00.197Z,0
2017-08-02T00:47:01.624Z,0
2017-08-02T00:48:03.053Z,0
2017-08-02T00:49:04.608Z,0
2017-08-02T00:50:06.041Z,0
2017-08-02T00:51:07.467Z,0
2017-08-02T00:52:08.905Z,0
2017-08-02T00:53:10.376Z,0
2017-08-02T00:54:11.795Z,0
2017-08-02T00:55:13.224Z,0
2017-08-02T00:56:14.742Z,0
2017-08-02T00:57:16.169Z,0
2017-08-02T00:58:17.590Z,0
2017-08-02T00:59:19.025Z,0
2017-08-02T01:00:20.503Z,0
2017-08-02T01:01:21.930Z,0
2017-08-02T01:02:23.354Z,0
2017-08-02T01:03:24.822Z,0
2017-08-02T01:04:26.251Z,0
2017-08-02T01:05:27.673Z,0
2017-08-02T01:06:29.104Z,0
2017-08-02T01:07:30.627Z,0
2017-08-02T01:08:32.060Z,0
2017-08-02T01:09:33.486Z,0
2017-08-02T01:10:34.919Z,0
2017-08-02T01:11:36.351Z,0
2017-08-02T01:12:37.782Z,0
2017-08-02T01:13:39.211Z,0
2017-08-02T01:14:40.636Z,0
2017-08-02T01:15:42.065Z,0
2017-08-02T01:16:43.481Z,0
2017-08-02T01:17:44.909Z,0
2017-08-02T01:18:46.332Z,0
2017-08-02T01:19:47.760Z,0
2017-08-02T01:20:49.187Z,0
2017-08-02T01:21:50.610Z,0
2017-08-02T01:22:52.035Z,0
2017-08-02T01:23:53.467Z,0
2017-08-02T01:24:54.894Z,0
2017-08-02T01:25:56.323Z,0
2017-08-02T01:26:57.771Z,0
2017-08-02T01:27:59.166Z,0
2017-08-02T01:29:00.589Z,0
2017-08-02T01:30:02.016Z,0
2017-08-02T01:31:03.444Z,0
2017-08-02T01:32:04.877Z,0
2017-08-02T01:33:06.313Z,0
2017-08-02T01:34:07.735Z,0
2017-08-02T01:35:09.166Z,0
2017-08-02T01:36:10.591Z,0
2017-08-02T01:37:12.020Z,0
2017-08-02T01:38:13.441Z,0
2017-08-02T01:39:14.869Z,0
2017-08-02T01:40:16.290Z,0
2017-08-02T01:41:17.717Z,0
2017-08-02T01:42:19.145Z,0
2017-08-02T01:43:20.565Z,0
2017-08-02T01:44:21.987Z,0
2017-08-02T01:45:23.407Z,0
2017-08-02T01:46:24.833Z,0
2017-08-02T01:47:26.262Z,0
2017-08-02T01:48:27.687Z,0
2017-08-02T01:49:29.121Z,0
2017-08-02T01:50:30.535Z,0
2017-08-02T01:51:31.959Z,0
2017-08-02T01:52:33.386Z,0
2017-08-02T01:53:34.809Z,0
2017-08-02T01:54:37.010Z,0
2017-08-02T01:55:38.446Z,0
2017-08-02T01:56:39.869Z,0
2017-08-02T01:57:41.298Z,0
2017-08-02T01:58:42.795Z,0
2017-08-02T01:59:44.236Z,0
2017-08-02T02:00:45.664Z,0
2017-08-02T02:01:47.090Z,0
2017-08-02T02:02:48.521Z,0
2017-08-02T02:03:50.037Z,0
2017-08-02T02:04:51.456Z,0
2017-08-02T02:05:52.883Z,0
2017-08-02T02:06:54.317Z,0
2017-08-02T02:07:55.732Z,0
2017-08-02T02:08:57.149Z,0
2017-08-02T02:09:58.581Z,0
2017-08-02T02:11:00.105Z,0
2017-08-02T02:12:01.525Z,0
2017-08-02T02:13:02.948Z,0
2017-08-02T02:14:04.397Z,0
2017-08-02T02:15:05.822Z,0
2017-08-02T02:16:07.254Z,0
2017-08-02T02:17:08.689Z,0
2017-08-02T02:18:10.160Z,0
2017-08-02T02:19:11.585Z,0
2017-08-02T02:20:13.010Z,0
2017-08-02T02:21:14.443Z,0
2017-08-02T02:22:15.876Z,0
2017-08-02T02:23:17.299Z,0
2017-08-02T02:24:18.718Z,0
2017-08-02T02:25:20.141Z,0
2017-08-02T02:26:21.568Z,0
2017-08-02T02:27:23.002Z,0
2017-08-02T02:28:24.441Z,0
2017-08-02T02:29:25.863Z,0
2017-08-02T02:30:27.294Z,0
2017-08-02T02:31:28.712Z,0
2017-08-02T02:32:30.133Z,0
2017-08-02T02:33:31.558Z,0
2017-08-02T02:34:32.980Z,0
2017-08-02T02:35:34.408Z,0
2017-08-02T02:36:35.843Z,0
2017-08-02T02:37:37.270Z,0
2017-08-02T02:38:38.696Z,0
2017-08-02T02:39:40.122Z,0
2017-08-02T02:40:41.545Z,0
2017-08-02T02:41:42.966Z,0
2017-08-02T02:42:44.392Z,0
2017-08-02T02:43:45.817Z,0
2017-08-02T02:44:47.248Z,0
2017-08-02T02:45:48.677Z,0
2017-08-02T02:46:50.097Z,0
2017-08-02T02:47:51.521Z,0
2017-08-02T02:48:52.942Z,0
2017-08-02T02:49:54.378Z,0
2017-08-02T02:50:55.798Z,0
2017-08-02T02:51:57.223Z,0
2017-08-02T02:52:58.646Z,0
2017-08-02T02:54:00.070Z,0
2017-08-02T02:55:01.490Z,0
2017-08-02T02:56:02.918Z,0
2017-08-02T02:57:04.340Z,0
2017-08-02T02:58:05.772Z,0
2017-08-02T02:59:07.201Z,0
2017-08-02T03:00:08.620Z,0
2017-08-02T03:01:10.040Z,0
2017-08-02T03:02:11.464Z,0
2017-08-02T03:03:12.892Z,0
2017-08-02T03:04:14.321Z,0
2017-08-02T03:05:15.752Z,0
2017-08-02T03:06:17.172Z,0
2017-08-02T03:07:18.618Z,0
2017-08-02T03:08:20.040Z,0
2017-08-02T03:09:21.461Z,0
2017-08-02T03:10:22.908Z,0
2017-08-02T03:11:24.321Z,0
2017-08-02T03:12:25.744Z,0
2017-08-02T03:13:27.168Z,0
2017-08-02T03:14:28.717Z,0
2017-08-02T03:15:30.149Z,0
2017-08-02T03:16:31.567Z,0
2017-08-02T03:17:32.996Z,0
2017-08-02T03:18:34.421Z,0
2017-08-02T03:19:35.842Z,0
2017-08-02T03:20:37.266Z,0
2017-08-02T03:21:38.696Z,0
2017-08-02T03:22:40.126Z,0
2017-08-02T03:23:41.548Z,0
2017-08-02T03:24:42.968Z,0
2017-08-02T03:25:44.395Z,0
2017-08-02T03:26:45.820Z,0
2017-08-02T03:27:47.244Z,0
2017-08-02T03:28:48.666Z,0
2017-08-02T03:29:50.091Z,0
2017-08-02T03:30:51.535Z,0
2017-08-02T03:31:52.950Z,0
2017-08-02T03:32:54.374Z,0
2017-08-02T03:33:55.802Z,4
2017-08-02T03:34:57.221Z,4
2017-08-02T03:35:58.645Z,0
2017-08-02T03:37:00.068Z,0
2017-08-02T03:38:01.502Z,4
2017-08-02T03:39:02.930Z,4
2017-08-02T03:40:04.362Z,4
2017-08-02T03:41:06.451Z,4
2017-08-02T03:42:07.880Z,4
2017-08-02T03:43:09.296Z,4
2017-08-02T03:44:10.728Z,8
2017-08-02T03:45:12.156Z,8
2017-08-02T03:46:13.587Z,8
2017-08-02T03:47:15.007Z,8
2017-08-02T03:48:16.433Z,8
2017-08-02T03:49:17.860Z,12
2017-08-02T03:50:19.283Z,8
2017-08-02T03:51:20.708Z,12
2017-08-02T03:52:22.132Z,16
2017-08-02T03:53:23.559Z,12
2017-08-02T03:54:24.989Z,16
2017-08-02T03:55:26.462Z,16
2017-08-02T03:56:27.888Z,20
2017-08-02T03:57:29.319Z,20
2017-08-02T03:58:30.744Z,20
2017-08-02T03:59:32.186Z,28
2017-08-02T04:00:33.608Z,28
2017-08-02T04:01:35.030Z,28
2017-08-02T04:02:36.462Z,32
2017-08-02T04:03:38.001Z,40
2017-08-02T04:04:40.250Z,40
2017-08-02T04:05:41.678Z,44
2017-08-02T04:06:43.105Z,48
2017-08-02T04:07:44.537Z,52
2017-08-02T04:08:45.959Z,56
2017-08-02T04:09:47.383Z,60
2017-08-02T04:10:48.806Z,64
2017-08-02T04:11:50.237Z,68
2017-08-02T04:12:51.662Z,72
2017-08-02T04:13:53.088Z,80
2017-08-02T04:14:54.508Z,80
2017-08-02T04:15:55.934Z,84
2017-08-02T04:16:57.372Z,88
2017-08-02T04:17:58.788Z,96
2017-08-02T04:19:00.212Z,100
2017-08-02T04:20:01.638Z,104
2017-08-02T04:21:03.069Z,104
2017-08-02T04:22:04.501Z,104
2017-08-02T04:23:05.923Z,104
2017-08-02T04:24:07.352Z,104
2017-08-02T04:25:08.782Z,104
2017-08-02T04:26:10.209Z,108
2017-08-02T04:27:11.638Z,112
2017-08-02T04:28:13.060Z,120
2017-08-02T04:29:14.491Z,124
2017-08-02T04:30:15.924Z,136
2017-08-02T04:31:17.350Z,144
2017-08-02T04:32:18.777Z,152
2017-08-02T04:33:20.212Z,164
2017-08-02T04:34:21.645Z,176
2017-08-02T04:35:23.081Z,188
2017-08-02T04:36:24.509Z,200
2017-08-02T04:37:25.936Z,208
2017-08-02T04:38:27.361Z,208
2017-08-02T04:39:28.786Z,204
2017-08-02T04:40:30.313Z,200
2017-08-02T04:41:31.742Z,208
2017-08-02T04:42:33.180Z,220
2017-08-02T04:43:34.611Z,232
2017-08-02T04:44:36.038Z,248
2017-08-02T04:45:37.468Z,256
2017-08-02T04:46:38.893Z,260
2017-08-02T04:47:40.327Z,260
2017-08-02T04:48:41.751Z,256
2017-08-02T04:49:43.184Z,264
2017-08-02T04:50:44.622Z,264
2017-08-02T04:51:46.050Z,280
2017-08-02T04:52:47.509Z,292
2017-08-02T04:53:48.913Z,300
2017-08-02T04:54:50.342Z,300
2017-08-02T04:55:51.761Z,308
2017-08-02T04:56:53.196Z,316
2017-08-02T04:57:54.635Z,312
2017-08-02T04:58:56.059Z,312
2017-08-02T04:59:57.489Z,304
2017-08-02T05:00:58.918Z,300
2017-08-02T05:02:00.347Z,292
2017-08-02T05:03:01.801Z,284
2017-08-02T05:04:03.210Z,272
2017-08-02T05:05:04.638Z,256
2017-08-02T05:06:06.073Z,248
2017-08-02T05:07:07.502Z,256
2017-08-02T05:08:08.928Z,260
2017-08-02T05:09:10.360Z,260
2017-08-02T05:10:11.791Z,260
2017-08-02T05:11:13.223Z,276
2017-08-02T05:12:14.659Z,292
2017-08-02T05:13:16.078Z,324
2017-08-02T05:14:17.527Z,340
2017-08-02T05:15:18.945Z,324
2017-08-02T05:16:20.374Z,312
2017-08-02T05:17:21.800Z,284
2017-08-02T05:18:23.229Z,276
2017-08-02T05:19:24.664Z,260
2017-08-02T05:20:26.092Z,260
2017-08-02T05:21:27.524Z,256
2017-08-02T05:22:28.953Z,248
2017-08-02T05:23:30.379Z,236
2017-08-02T05:24:31.810Z,228
2017-08-02T05:25:33.241Z,208
2017-08-02T05:26:34.667Z,204
2017-08-02T05:27:36.108Z,196
2017-08-02T05:28:37.534Z,192
2017-08-02T05:29:38.962Z,196
2017-08-02T05:30:40.385Z,200
2017-08-02T05:31:41.808Z,200
2017-08-02T05:32:43.253Z,200
2017-08-02T05:33:44.680Z,200
2017-08-02T05:34:46.109Z,188
2017-08-02T05:35:47.543Z,180
2017-08-02T05:36:48.972Z,184
2017-08-02T05:37:50.402Z,184
2017-08-02T05:38:51.831Z,188
2017-08-02T05:39:53.263Z,184
2017-08-02T05:40:54.692Z,192
2017-08-02T05:41:56.125Z,148
2017-08-02T05:42:57.557Z,180
2017-08-02T05:43:58.979Z,156
2017-08-02T05:45:00.407Z,84
2017-08-02T05:46:01.834Z,152
2017-08-02T05:47:03.265Z,100
2017-08-02T05:48:04.691Z,152
2017-08-02T05:49:06.121Z,164
2017-08-02T05:50:07.559Z,172
2017-08-02T05:51:08.983Z,180
2017-08-02T05:52:10.411Z,176
2017-08-02T05:53:11.844Z,180
2017-08-02T05:54:13.280Z,172
2017-08-02T05:55:14.698Z,152
2017-08-02T05:56:16.129Z,136
2017-08-02T05:57:17.560Z,120
2017-08-02T05:58:18.985Z,120
2017-08-02T05:59:20.417Z,124
2017-08-02T06:00:21.850Z,120
2017-08-02T06:01:23.278Z,116
2017-08-02T06:02:24.708Z,96
2017-08-02T06:03:26.130Z,76
2017-08-02T06:04:27.556Z,64
2017-08-02T06:05:28.982Z,56
2017-08-02T06:06:30.418Z,48
2017-08-02T06:07:31.851Z,52
2017-08-02T06:08:33.273Z,52
2017-08-02T06:09:34.705Z,56
2017-08-02T06:10:36.130Z,68
2017-08-02T06:11:37.562Z,88
2017-08-02T06:12:38.990Z,100
2017-08-02T06:13:40.421Z,120
2017-08-02T06:14:41.853Z,132
2017-08-02T06:15:43.284Z,140
2017-08-02T06:16:44.723Z,140
2017-08-02T06:17:46.154Z,136
2017-08-02T06:18:47.583Z,128
2017-08-02T06:19:49.008Z,128
2017-08-02T06:20:50.432Z,112
2017-08-02T06:21:51.880Z,104
2017-08-02T06:22:53.301Z,96
2017-08-02T06:23:54.722Z,100
2017-08-02T06:24:56.158Z,104
2017-08-02T06:25:57.593Z,108
2017-08-02T06:26:59.019Z,116
2017-08-02T06:28:00.459Z,148
2017-08-02T06:29:01.899Z,180
2017-08-02T06:30:03.334Z,192
2017-08-02T06:31:04.764Z,188
2017-08-02T06:32:06.191Z,208
2017-08-02T06:33:07.623Z,236
2017-08-02T06:34:09.062Z,256
2017-08-02T06:35:10.489Z,268
2017-08-02T06:36:11.929Z,260
2017-08-02T06:37:13.359Z,268
2017-08-02T06:38:14.814Z,312
2017-08-02T06:39:16.225Z,304
2017-08-02T06:40:17.650Z,240
2017-08-02T06:41:19.073Z,208
2017-08-02T06:42:20.506Z,244
2017-08-02T06:43:21.943Z,432
2017-08-02T06:44:23.367Z,568
2017-08-02T06:45:24.790Z,540
2017-08-02T06:46:26.221Z,532
2017-08-02T06:47:27.676Z,536
2017-08-02T06:48:29.112Z,640
2017-08-02T06:49:30.541Z,712
2017-08-02T06:50:31.971Z,808
2017-08-02T06:51:33.398Z,788
2017-08-02T06:52:34.827Z,644
2017-08-02T06:53:36.277Z,480
2017-08-02T06:54:37.709Z,380
2017-08-02T06:55:39.145Z,336
2017-08-02T06:56:40.645Z,304
2017-08-02T06:57:42.060Z,236
2017-08-02T06:58:43.501Z,260
2017-08-02T06:59:46.932Z,288
2017-08-02T07:00:48.864Z,408
2017-08-02T07:01:50.396Z,536
2017-08-02T07:02:52.203Z,508
2017-08-02T07:03:53.881Z,516
2017-08-02T07:04:55.567Z,444
2017-08-02T07:05:57.489Z,380
2017-08-02T07:06:58.914Z,372
2017-08-02T07:08:00.357Z,320
2017-08-02T07:09:01.782Z,328
2017-08-02T07:10:03.212Z,408
2017-08-02T07:11:04.648Z,512
2017-08-02T07:12:06.075Z,584
2017-08-02T07:13:07.507Z,644
2017-08-02T07:14:08.930Z,752
2017-08-02T07:15:10.364Z,756
2017-08-02T07:16:11.793Z,808
2017-08-02T07:17:13.225Z,800
2017-08-02T07:18:14.666Z,888
2017-08-02T07:19:16.096Z,916
2017-08-02T07:20:17.531Z,1048
2017-08-02T07:21:18.958Z,1148
2017-08-02T07:22:20.394Z,1352
2017-08-02T07:23:21.823Z,1292
2017-08-02T07:24:23.262Z,1356
2017-08-02T07:25:24.686Z,1432
2017-08-02T07:26:26.121Z,1448
2017-08-02T07:27:27.559Z,1424
2017-08-02T07:28:28.987Z,1436
2017-08-02T07:29:30.425Z,1456
2017-08-02T07:30:31.851Z,1524
2017-08-02T07:31:33.286Z,1432
2017-08-02T07:32:34.712Z,1336
2017-08-02T07:33:36.147Z,1296
2017-08-02T07:34:37.572Z,1280
2017-08-02T07:35:39.007Z,1312
2017-08-02T07:36:40.438Z,1372
2017-08-02T07:37:41.876Z,1304
2017-08-02T07:38:43.317Z,1408
2017-08-02T07:39:44.746Z,1368
2017-08-02T07:40:46.177Z,1412
2017-08-02T07:41:47.604Z,1460
2017-08-02T07:42:49.038Z,1372
2017-08-02T07:43:50.466Z,1396
2017-08-02T07:44:51.895Z,1272
2017-08-02T07:45:53.327Z,1452
2017-08-02T07:46:54.834Z,1380
2017-08-02T07:47:56.263Z,1388
2017-08-02T07:48:57.694Z,1360
2017-08-02T07:49:59.135Z,1416
2017-08-02T07:51:00.559Z,1292
2017-08-02T07:52:02.004Z,1340
2017-08-02T07:53:03.431Z,1448
2017-08-02T07:54:04.864Z,1600
2017-08-02T07:55:06.308Z,1732
2017-08-02T07:56:07.734Z,1672
2017-08-02T07:57:09.172Z,1796
2017-08-02T07:58:10.606Z,1652
2017-08-02T07:59:12.049Z,2072
2017-08-02T08:00:13.487Z,2076
2017-08-02T08:01:14.923Z,2100
2017-08-02T08:02:16.359Z,1876
2017-08-02T08:03:17.794Z,1780
2017-08-02T08:04:19.224Z,1648
2017-08-02T08:05:20.660Z,1608
2017-08-02T08:06:22.114Z,1556
2017-08-02T08:07:23.532Z,1532
2017-08-02T08:08:24.975Z,1612
2017-08-02T08:09:26.406Z,1580
2017-08-02T08:10:27.891Z,1708
2017-08-02T08:11:29.329Z,1696
2017-08-02T08:12:30.767Z,1616
2017-08-02T08:13:32.310Z,1832
2017-08-02T08:14:33.741Z,1868
2017-08-02T08:15:35.185Z,1744
2017-08-02T08:16:36.617Z,1652
2017-08-02T08:17:38.058Z,1600
2017-08-02T08:18:39.499Z,1616
2017-08-02T08:19:40.924Z,1768
2017-08-02T08:20:42.374Z,1732
2017-08-02T08:21:43.823Z,1880
2017-08-02T08:22:45.258Z,1724
2017-08-02T08:23:46.697Z,2024
2017-08-02T08:24:48.137Z,1760
2017-08-02T08:25:49.571Z,1916
2017-08-02T08:26:51.007Z,2028
2017-08-02T08:27:52.444Z,1792
2017-08-02T08:28:53.886Z,2012
2017-08-02T08:29:55.317Z,1760
2017-08-02T08:30:56.766Z,1752
2017-08-02T08:31:58.204Z,1700
2017-08-02T08:32:59.638Z,1660
2017-08-02T08:34:01.075Z,1932
2017-08-02T08:35:02.597Z,1856
2017-08-02T08:36:04.025Z,1888
2017-08-02T08:37:05.460Z,1880
2017-08-02T08:38:06.900Z,1908
2017-08-02T08:39:08.330Z,2036
2017-08-02T08:40:09.763Z,2080
2017-08-02T08:41:11.211Z,1916
2017-08-02T08:42:12.633Z,1972
2017-08-02T08:43:14.142Z,1944
2017-08-02T08:44:15.587Z,1940
2017-08-02T08:45:17.017Z,1984
2017-08-02T08:46:18.456Z,2016
2017-08-02T08:47:19.903Z,2264
2017-08-02T08:48:21.338Z,2196
2017-08-02T08:49:22.780Z,2380
2017-08-02T08:50:24.215Z,2716
2017-08-02T08:51:25.641Z,2652
2017-08-02T08:52:27.078Z,2592
2017-08-02T08:53:28.505Z,2236
2017-08-02T08:54:29.937Z,2112
2017-08-02T08:55:31.367Z,1876
2017-08-02T08:56:32.805Z,1576
2017-08-02T08:57:34.229Z,1408
2017-08-02T08:58:35.661Z,1172
2017-08-02T08:59:37.103Z,1236
2017-08-02T09:00:38.562Z,1604
2017-08-02T09:01:39.982Z,1816
2017-08-02T09:02:41.420Z,1908
2017-08-02T09:03:42.875Z,2176
2017-08-02T09:04:44.311Z,2288
2017-08-02T09:05:45.749Z,2348
2017-08-02T09:06:47.185Z,2388
2017-08-02T09:07:48.614Z,2460
2017-08-02T09:08:50.055Z,2444
2017-08-02T09:09:51.489Z,2416
2017-08-02T09:10:52.929Z,2284
2017-08-02T09:11:54.370Z,2220
2017-08-02T09:12:55.799Z,2204
2017-08-02T09:13:57.246Z,2328
2017-08-02T09:14:59.033Z,2368
2017-08-02T09:16:00.467Z,2420
2017-08-02T09:17:01.902Z,2316
2017-08-02T09:18:03.336Z,2216
2017-08-02T09:19:04.766Z,2004
2017-08-02T09:20:06.211Z,1516
2017-08-02T09:21:07.649Z,1568
2017-08-02T09:22:09.080Z,1560
2017-08-02T09:23:10.514Z,1532
2017-08-02T09:24:11.951Z,1444
2017-08-02T09:25:13.387Z,1376
2017-08-02T09:26:14.824Z,1428
2017-08-02T09:27:17.099Z,1740
2017-08-02T09:28:18.532Z,1840
2017-08-02T09:29:19.973Z,1852
2017-08-02T09:30:21.405Z,1792
2017-08-02T09:31:22.838Z,1916
2017-08-02T09:32:24.283Z,1972
2017-08-02T09:33:25.736Z,1916
2017-08-02T09:34:27.173Z,1920
2017-08-02T09:35:28.598Z,1984
2017-08-02T09:36:30.033Z,2072
2017-08-02T09:37:31.468Z,2280
2017-08-02T09:38:33.712Z,3012
2017-08-02T09:39:35.153Z,3176
2017-08-02T09:40:36.583Z,3052
2017-08-02T09:41:38.023Z,3048
2017-08-02T09:42:39.467Z,2824
2017-08-02T09:43:40.900Z,2804
2017-08-02T09:44:42.344Z,2580
2017-08-02T09:45:43.790Z,2656
2017-08-02T09:46:45.222Z,2672
2017-08-02T09:47:46.658Z,2696
2017-08-02T09:48:48.089Z,2880
2017-08-02T09:49:49.522Z,2636
2017-08-02T09:50:50.963Z,2632
2017-08-02T09:51:52.394Z,2416
2017-08-02T09:52:53.840Z,2188
2017-08-02T09:53:55.277Z,2720
2017-08-02T09:54:56.715Z,2124
2017-08-02T09:55:58.156Z,1880
2017-08-02T09:56:59.586Z,1900
2017-08-02T09:58:01.775Z,2028
2017-08-02T09:59:03.226Z,2660
2017-08-02T10:00:04.655Z,2752
2017-08-02T10:01:06.094Z,2704
2017-08-02T10:02:07.530Z,2432
2017-08-02T10:03:10.536Z,2788
2017-08-02T10:04:11.957Z,3132
2017-08-02T10:05:13.393Z,3196
2017-08-02T10:06:14.836Z,2580
2017-08-02T10:07:16.274Z,2916
2017-08-02T10:08:17.709Z,3172
2017-08-02T10:09:19.148Z,3112
2017-08-02T10:10:20.587Z,3356
2017-08-02T10:11:22.027Z,3724
2017-08-02T10:12:23.537Z,3296
2017-08-02T10:13:24.974Z,3716
2017-08-02T10:14:26.406Z,3320
2017-08-02T10:15:27.864Z,3552
2017-08-02T10:16:29.298Z,3428
2017-08-02T10:17:31.013Z,3312
2017-08-02T10:18:32.441Z,3276
2017-08-02T10:19:33.895Z,3272
2017-08-02T10:20:35.350Z,3192
2017-08-02T10:21:36.784Z,3164
2017-08-02T10:22:38.223Z,3248
2017-08-02T10:23:39.662Z,3232
2017-08-02T10:24:41.099Z,3128
2017-08-02T10:25:42.540Z,2928
2017-08-02T10:26:43.972Z,3372
2017-08-02T10:27:45.403Z,3520
2017-08-02T10:28:46.847Z,3240
2017-08-02T10:29:48.295Z,3176
2017-08-02T10:30:49.731Z,3472
2017-08-02T10:31:51.161Z,3284
2017-08-02T10:32:52.597Z,3092
2017-08-02T10:33:54.045Z,3040
2017-08-02T10:34:55.481Z,3196
2017-08-02T10:35:56.911Z,3452
2017-08-02T10:36:58.349Z,3416
2017-08-02T10:37:59.789Z,3340
2017-08-02T10:39:01.226Z,3084
2017-08-02T10:40:02.663Z,2792
2017-08-02T10:41:04.105Z,2448
2017-08-02T10:42:05.543Z,2416
2017-08-02T10:43:06.981Z,2444
2017-08-02T10:44:08.426Z,2484
2017-08-02T10:45:09.887Z,2572
2017-08-02T10:46:11.323Z,3068
2017-08-02T10:47:12.784Z,3424
2017-08-02T10:48:14.257Z,3596
2017-08-02T10:49:15.702Z,3920
2017-08-02T10:50:17.145Z,4068
2017-08-02T10:51:18.579Z,4496
2017-08-02T10:52:20.013Z,4612
2017-08-02T10:53:21.449Z,4380
2017-08-02T10:54:22.885Z,4160
2017-08-02T10:55:24.392Z,4124
2017-08-02T10:56:25.833Z,3872
2017-08-02T10:57:27.269Z,3804
2017-08-02T10:58:28.740Z,3804
2017-08-02T10:59:30.218Z,3892
2017-08-02T11:00:31.663Z,3644
2017-08-02T11:01:33.094Z,3352
2017-08-02T11:02:34.527Z,3216
2017-08-02T11:03:35.967Z,3004
2017-08-02T11:04:37.407Z,2772
2017-08-02T11:05:38.853Z,2468
2017-08-02T11:06:40.288Z,2228
2017-08-02T11:07:41.715Z,2300
2017-08-02T11:08:43.153Z,2336
2017-08-02T11:09:44.589Z,2264
2017-08-02T11:10:46.034Z,2360
2017-08-02T11:11:47.481Z,2760
2017-08-02T11:12:48.922Z,3180
2017-08-02T11:13:50.402Z,3536
2017-08-02T11:14:51.834Z,3816
2017-08-02T11:15:53.265Z,3568
2017-08-02T11:16:54.704Z,2984
2017-08-02T11:17:56.135Z,3032
2017-08-02T11:18:57.572Z,3528
2017-08-02T11:19:59.000Z,4088
2017-08-02T11:21:00.447Z,4032
2017-08-02T11:22:01.892Z,3716
2017-08-02T11:23:03.329Z,3456
2017-08-02T11:24:04.767Z,3564
2017-08-02T11:25:06.215Z,3560
2017-08-02T11:26:07.640Z,3648
2017-08-02T11:27:09.076Z,3632
2017-08-02T11:28:10.515Z,3724
2017-08-02T11:29:12.045Z,3848
2017-08-02T11:30:13.485Z,3880
2017-08-02T11:31:14.920Z,4076
2017-08-02T11:32:16.370Z,4532
2017-08-02T11:33:17.793Z,4236
2017-08-02T11:34:19.234Z,4464
2017-08-02T11:35:20.672Z,4784
2017-08-02T11:36:22.116Z,5092
2017-08-02T11:37:23.547Z,5496
2017-08-02T11:38:24.993Z,5076
2017-08-02T11:39:26.497Z,4956
2017-08-02T11:40:27.929Z,4836
2017-08-02T11:41:29.361Z,4584
2017-08-02T11:42:30.804Z,4564
2017-08-02T11:43:32.249Z,4512
2017-08-02T11:44:33.685Z,4380
2017-08-02T11:45:35.120Z,4376
2017-08-02T11:46:36.573Z,4092
2017-08-02T11:47:38.010Z,4244
2017-08-02T11:48:39.452Z,4608
2017-08-02T11:49:40.906Z,4908
2017-08-02T11:50:42.391Z,4508
2017-08-02T11:51:43.825Z,4964
2017-08-02T11:52:45.261Z,4488
2017-08-02T11:53:46.743Z,4244
2017-08-02T11:54:48.182Z,3884
2017-08-02T11:55:49.623Z,3532
2017-08-02T11:56:51.058Z,3096
2017-08-02T11:57:52.494Z,3164
2017-08-02T11:58:53.939Z,3256
2017-08-02T11:59:55.378Z,3264
2017-08-02T12:00:56.814Z,3520
2017-08-02T12:01:58.251Z,3340
2017-08-02T12:02:59.685Z,3712
2017-08-02T12:04:01.122Z,4604
2017-08-02T12:05:02.597Z,5080
2017-08-02T12:06:04.054Z,6096
2017-08-02T12:07:05.489Z,5456
2017-08-02T12:08:06.932Z,5116
2017-08-02T12:09:08.371Z,4840
2017-08-02T12:10:09.810Z,3896
2017-08-02T12:11:11.274Z,3340
2017-08-02T12:12:12.713Z,3112
2017-08-02T12:13:14.174Z,2896
2017-08-02T12:14:15.608Z,2560
2017-08-02T12:15:17.048Z,2352
2017-08-02T12:16:18.490Z,2352
2017-08-02T12:17:19.923Z,2368
2017-08-02T12:18:21.370Z,2220
2017-08-02T12:19:22.815Z,2072
2017-08-02T12:20:24.259Z,2048
2017-08-02T12:21:25.699Z,2120
2017-08-02T12:22:27.132Z,2028
2017-08-02T12:23:28.576Z,2140
2017-08-02T12:24:30.033Z,2128
2017-08-02T12:25:31.485Z,2184
2017-08-02T12:26:32.923Z,2164
2017-08-02T12:27:34.364Z,2436
2017-08-02T12:28:35.789Z,2624
2017-08-02T12:29:37.221Z,2844
2017-08-02T12:30:38.665Z,2996
2017-08-02T12:31:40.106Z,3208
2017-08-02T12:32:41.538Z,3684
2017-08-02T12:33:42.974Z,3712
2017-08-02T12:34:44.438Z,3588
2017-08-02T12:35:45.877Z,3228
2017-08-02T12:36:47.305Z,3048
2017-08-02T12:37:48.744Z,2916
2017-08-02T12:38:50.189Z,2920
2017-08-02T12:39:51.630Z,2788
2017-08-02T12:40:53.066Z,2440
2017-08-02T12:41:54.503Z,2388
2017-08-02T12:42:56.008Z,2704
2017-08-02T12:43:57.450Z,2888
2017-08-02T12:44:58.888Z,3412
2017-08-02T12:46:00.352Z,4740
2017-08-02T12:47:01.783Z,5456
2017-08-02T12:48:03.222Z,5580
2017-08-02T12:49:04.653Z,5648
2017-08-02T12:50:06.172Z,5384
2017-08-02T12:51:07.616Z,5636
2017-08-02T12:52:09.042Z,6160
2017-08-02T12:53:10.500Z,4792
2017-08-02T12:54:11.944Z,3960
2017-08-02T12:55:13.398Z,3152
2017-08-02T12:56:14.840Z,3464
2017-08-02T12:57:16.279Z,4392
2017-08-02T12:58:17.715Z,4208
2017-08-02T12:59:19.157Z,4284
2017-08-02T13:00:20.596Z,4356
2017-08-02T13:01:22.033Z,4648
2017-08-02T13:02:23.473Z,4020
2017-08-02T13:03:24.910Z,3844
2017-08-02T13:04:26.359Z,3796
2017-08-02T13:05:27.793Z,4100
2017-08-02T13:06:29.240Z,4312
2017-08-02T13:07:30.756Z,4156
2017-08-02T13:08:32.203Z,3352
2017-08-02T13:09:33.638Z,2888
2017-08-02T13:10:35.077Z,2592
2017-08-02T13:11:37.145Z,2124
2017-08-02T13:12:37.893Z,1464
2017-08-02T13:13:39.333Z,1092
2017-08-02T13:14:40.773Z,900
2017-08-02T13:15:42.252Z,836
2017-08-02T13:16:43.687Z,828
2017-08-02T13:17:45.117Z,968
2017-08-02T13:18:46.560Z,1088
2017-08-02T13:19:47.998Z,1108
2017-08-02T13:20:49.429Z,1244
2017-08-02T13:21:50.860Z,1476
2017-08-02T13:22:52.327Z,1624
2017-08-02T13:23:53.765Z,1688
2017-08-02T13:24:55.208Z,1808
2017-08-02T13:25:56.719Z,1972
2017-08-02T13:26:58.169Z,1892
2017-08-02T13:27:59.599Z,1940
2017-08-02T13:29:01.043Z,1924
2017-08-02T13:30:02.508Z,1988
2017-08-02T13:31:03.940Z,2108
2017-08-02T13:32:05.379Z,2144
2017-08-02T13:33:06.814Z,1956
2017-08-02T13:34:08.244Z,1816
2017-08-02T13:35:09.687Z,2008
2017-08-02T13:36:11.144Z,2228
2017-08-02T13:37:12.586Z,2612
2017-08-02T13:38:14.018Z,2688
2017-08-02T13:39:15.461Z,2520
2017-08-02T13:40:16.904Z,2520
2017-08-02T13:41:18.338Z,2756
2017-08-02T13:42:19.773Z,2792
2017-08-02T13:43:21.204Z,2796
2017-08-02T13:44:22.638Z,2516
2017-08-02T13:45:24.100Z,2508
2017-08-02T13:46:25.534Z,2652
2017-08-02T13:47:26.975Z,2664
2017-08-02T13:48:28.409Z,2688
2017-08-02T13:49:29.851Z,2272
2017-08-02T13:50:31.286Z,2104
2017-08-02T13:51:32.754Z,2084
2017-08-02T13:52:34.193Z,1680
2017-08-02T13:53:35.619Z,1368
2017-08-02T13:54:37.049Z,1388
2017-08-02T13:55:38.490Z,1572
2017-08-02T13:56:39.961Z,1676
2017-08-02T13:57:41.399Z,1832
2017-08-02T13:58:42.831Z,1936
2017-08-02T13:59:44.273Z,2080
2017-08-02T14:00:45.705Z,2068
2017-08-02T14:01:47.158Z,1904
2017-08-02T14:02:48.618Z,1768
2017-08-02T14:03:50.059Z,1740
2017-08-02T14:04:51.489Z,1932
2017-08-02T14:05:52.923Z,1940
2017-08-02T14:06:54.438Z,1728
2017-08-02T14:07:55.871Z,1552
2017-08-02T14:08:57.303Z,1360
2017-08-02T14:09:58.735Z,1180